sensor_id;sensor_type;location;lat;lon;timestamp;P1;durP1;ratioP1;P2;durP2;ratioP2
71162;SDS011;58858;50.948;6.566;2022-11-15T00:09:30;14.10;;;8.65;;
71162;SDS011;58858;50.948;6.566;2022-11-15T00:19:49;9.65;;;6.93;;
71162;SDS011;58858;50.948;6.566;2022-11-15T00:30:09;9.88;;;5.53;;
71162;SDS011;58858;50.948;6.566;2022-11-15T00:40:29;6.70;;;4.18;;
71162;SDS011;58858;50.948;6.566;2022-11-15T00:50:49;7.97;;;5.03;;
71162;SDS011;58858;50.948;6.566;2022-11-15T01:01:10;7.15;;;5.47;;
71162;SDS011;58858;50.948;6.566;2022-11-15T01:11:33;7.05;;;4.20;;
71162;SDS011;58858;50.948;6.566;2022-11-15T01:21:53;8.90;;;4.45;;
71162;SDS011;58858;50.948;6.566;2022-11-15T01:32:13;6.05;;;4.28;;
71162;SDS011;58858;50.948;6.566;2022-11-15T01:42:32;7.25;;;3.92;;
71162;SDS011;58858;50.948;6.566;2022-11-15T01:52:51;5.90;;;4.28;;
71162;SDS011;58858;50.948;6.566;2022-11-15T02:03:11;6.60;;;4.78;;
71162;SDS011;58858;50.948;6.566;2022-11-15T02:13:31;7.60;;;4.22;;
71162;SDS011;58858;50.948;6.566;2022-11-15T02:34:34;9.38;;;4.57;;
71162;SDS011;58858;50.948;6.566;2022-11-15T02:45:04;7.20;;;4.88;;
71162;SDS011;58858;50.948;6.566;2022-11-15T03:06:08;8.32;;;5.35;;
71162;SDS011;58858;50.948;6.566;2022-11-15T03:16:41;7.50;;;4.95;;
71162;SDS011;58858;50.948;6.566;2022-11-15T03:27:07;6.72;;;4.32;;
71162;SDS011;58858;50.948;6.566;2022-11-15T03:37:30;4.63;;;3.70;;
71162;SDS011;58858;50.948;6.566;2022-11-15T03:47:57;6.53;;;3.10;;
71162;SDS011;58858;50.948;6.566;2022-11-15T03:58:20;3.72;;;2.75;;
71162;SDS011;58858;50.948;6.566;2022-11-15T04:08:40;3.08;;;2.45;;
71162;SDS011;58858;50.948;6.566;2022-11-15T04:18:59;4.15;;;3.00;;
71162;SDS011;58858;50.948;6.566;2022-11-15T04:29:38;3.55;;;2.90;;
71162;SDS011;58858;50.948;6.566;2022-11-15T04:39:57;3.13;;;2.65;;
71162;SDS011;58858;50.948;6.566;2022-11-15T04:50:17;3.50;;;2.50;;
71162;SDS011;58858;50.948;6.566;2022-11-15T05:00:36;2.20;;;1.88;;
71162;SDS011;58858;50.948;6.566;2022-11-15T05:10:56;2.60;;;1.73;;
71162;SDS011;58858;50.948;6.566;2022-11-15T05:21:15;1.77;;;1.55;;
71162;SDS011;58858;50.948;6.566;2022-11-15T05:31:34;2.13;;;1.20;;
71162;SDS011;58858;50.948;6.566;2022-11-15T05:42:01;1.63;;;1.17;;
71162;SDS011;58858;50.948;6.566;2022-11-15T05:52:28;3.35;;;2.03;;
71162;SDS011;58858;50.948;6.566;2022-11-15T06:02:50;1.30;;;1.15;;
71162;SDS011;58858;50.948;6.566;2022-11-15T06:13:10;1.48;;;1.00;;
71162;SDS011;58858;50.948;6.566;2022-11-15T06:23:33;2.30;;;1.48;;
71162;SDS011;58858;50.948;6.566;2022-11-15T06:33:53;2.63;;;1.85;;
71162;SDS011;58858;50.948;6.566;2022-11-15T06:44:13;3.70;;;1.77;;
71162;SDS011;58858;50.948;6.566;2022-11-15T06:54:32;2.20;;;1.00;;
71162;SDS011;58858;50.948;6.566;2022-11-15T07:04:51;3.17;;;1.80;;
71162;SDS011;58858;50.948;6.566;2022-11-15T07:15:11;2.03;;;1.40;;
71162;SDS011;58858;50.948;6.566;2022-11-15T07:25:31;1.23;;;0.93;;
71162;SDS011;58858;50.948;6.566;2022-11-15T07:35:51;5.78;;;1.42;;
71162;SDS011;58858;50.948;6.566;2022-11-15T07:46:10;6.60;;;1.75;;
71162;SDS011;58858;50.948;6.566;2022-11-15T07:56:30;3.60;;;2.22;;
71162;SDS011;58858;50.948;6.566;2022-11-15T08:06:49;1.70;;;0.77;;
71162;SDS011;58858;50.948;6.566;2022-11-15T08:17:09;4.85;;;1.55;;
71162;SDS011;58858;50.948;6.566;2022-11-15T08:27:28;4.18;;;1.60;;
71162;SDS011;58858;50.948;6.566;2022-11-15T08:37:48;2.92;;;1.20;;
71162;SDS011;58858;50.948;6.566;2022-11-15T08:48:07;2.00;;;1.20;;
71162;SDS011;58858;50.948;6.566;2022-11-15T08:58:27;2.63;;;0.80;;
71162;SDS011;58858;50.948;6.566;2022-11-15T09:08:46;2.65;;;0.93;;
71162;SDS011;58858;50.948;6.566;2022-11-15T09:19:06;4.63;;;2.05;;
71162;SDS011;58858;50.948;6.566;2022-11-15T09:29:25;2.55;;;0.70;;
71162;SDS011;58858;50.948;6.566;2022-11-15T09:39:45;3.60;;;1.00;;
71162;SDS011;58858;50.948;6.566;2022-11-15T09:50:11;2.40;;;1.08;;
71162;SDS011;58858;50.948;6.566;2022-11-15T10:10:46;4.68;;;0.85;;
71162;SDS011;58858;50.948;6.566;2022-11-15T10:20:50;1.42;;;0.80;;
71162;SDS011;58858;50.948;6.566;2022-11-15T10:30:59;2.83;;;1.42;;
71162;SDS011;58858;50.948;6.566;2022-11-15T10:41:06;3.67;;;1.00;;
71162;SDS011;58858;50.948;6.566;2022-11-15T10:51:17;2.95;;;0.85;;
71162;SDS011;58858;50.948;6.566;2022-11-15T11:01:24;6.07;;;1.20;;
71162;SDS011;58858;50.948;6.566;2022-11-15T11:11:43;3.30;;;0.52;;
71162;SDS011;58858;50.948;6.566;2022-11-15T11:21:49;1.98;;;0.60;;
71162;SDS011;58858;50.948;6.566;2022-11-15T11:42:36;5.45;;;0.50;;
71162;SDS011;58858;50.948;6.566;2022-11-15T11:52:52;2.38;;;0.68;;
71162;SDS011;58858;50.948;6.566;2022-11-15T12:13:19;3.20;;;0.77;;
71162;SDS011;58858;50.948;6.566;2022-11-15T12:23:28;11.77;;;1.58;;
71162;SDS011;58858;50.948;6.566;2022-11-15T12:33:37;4.30;;;1.05;;
71162;SDS011;58858;50.948;6.566;2022-11-15T12:43:42;2.45;;;0.63;;
71162;SDS011;58858;50.948;6.566;2022-11-15T12:53:43;2.45;;;0.90;;
71162;SDS011;58858;50.948;6.566;2022-11-15T13:24:38;0.88;;;0.65;;
71162;SDS011;58858;50.948;6.566;2022-11-15T13:34:42;3.35;;;1.50;;
71162;SDS011;58858;50.948;6.566;2022-11-15T13:44:58;6.75;;;1.25;;
71162;SDS011;58858;50.948;6.566;2022-11-15T13:55:01;5.47;;;1.40;;
71162;SDS011;58858;50.948;6.566;2022-11-15T14:25:28;4.40;;;1.00;;
71162;SDS011;58858;50.948;6.566;2022-11-15T14:35:30;1.98;;;1.38;;
71162;SDS011;58858;50.948;6.566;2022-11-15T14:45:33;2.63;;;1.67;;
71162;SDS011;58858;50.948;6.566;2022-11-15T14:55:35;3.17;;;2.03;;
71162;SDS011;58858;50.948;6.566;2022-11-15T15:05:38;5.10;;;1.70;;
71162;SDS011;58858;50.948;6.566;2022-11-15T15:15:40;1.98;;;1.40;;
71162;SDS011;58858;50.948;6.566;2022-11-15T15:25:41;4.25;;;2.05;;
71162;SDS011;58858;50.948;6.566;2022-11-15T15:35:42;5.60;;;2.55;;
71162;SDS011;58858;50.948;6.566;2022-11-15T15:45:43;4.95;;;2.17;;
71162;SDS011;58858;50.948;6.566;2022-11-15T15:55:45;3.50;;;1.92;;
71162;SDS011;58858;50.948;6.566;2022-11-15T16:05:46;4.88;;;1.65;;
71162;SDS011;58858;50.948;6.566;2022-11-15T16:15:49;2.72;;;1.55;;
71162;SDS011;58858;50.948;6.566;2022-11-15T16:25:54;4.17;;;1.37;;
71162;SDS011;58858;50.948;6.566;2022-11-15T16:35:56;3.10;;;1.55;;
71162;SDS011;58858;50.948;6.566;2022-11-15T16:45:57;2.45;;;1.55;;
71162;SDS011;58858;50.948;6.566;2022-11-15T16:55:58;1.73;;;1.33;;
71162;SDS011;58858;50.948;6.566;2022-11-15T17:05:59;4.65;;;2.05;;
71162;SDS011;58858;50.948;6.566;2022-11-15T17:16:06;5.90;;;2.20;;
71162;SDS011;58858;50.948;6.566;2022-11-15T17:36:27;4.45;;;2.63;;
71162;SDS011;58858;50.948;6.566;2022-11-15T17:46:28;2.67;;;2.13;;
71162;SDS011;58858;50.948;6.566;2022-11-15T17:56:30;5.57;;;2.50;;
71162;SDS011;58858;50.948;6.566;2022-11-15T18:06:31;3.55;;;2.70;;
71162;SDS011;58858;50.948;6.566;2022-11-15T18:16:34;6.15;;;2.53;;
71162;SDS011;58858;50.948;6.566;2022-11-15T18:26:36;3.95;;;2.35;;
71162;SDS011;58858;50.948;6.566;2022-11-15T18:36:38;5.05;;;3.10;;
71162;SDS011;58858;50.948;6.566;2022-11-15T18:46:39;6.15;;;4.05;;
71162;SDS011;58858;50.948;6.566;2022-11-15T18:56:41;4.78;;;3.10;;
71162;SDS011;58858;50.948;6.566;2022-11-15T19:06:47;5.03;;;3.73;;
71162;SDS011;58858;50.948;6.566;2022-11-15T19:16:49;4.38;;;3.03;;
71162;SDS011;58858;50.948;6.566;2022-11-15T19:26:51;9.20;;;5.07;;
71162;SDS011;58858;50.948;6.566;2022-11-15T19:36:53;8.15;;;4.18;;
71162;SDS011;58858;50.948;6.566;2022-11-15T19:46:54;13.50;;;4.65;;
71162;SDS011;58858;50.948;6.566;2022-11-15T19:56:55;5.78;;;4.43;;
71162;SDS011;58858;50.948;6.566;2022-11-15T20:06:56;7.38;;;4.35;;
71162;SDS011;58858;50.948;6.566;2022-11-15T20:17:00;4.38;;;3.22;;
71162;SDS011;58858;50.948;6.566;2022-11-15T20:27:01;7.68;;;3.60;;
71162;SDS011;58858;50.948;6.566;2022-11-15T20:37:02;6.80;;;4.35;;
71162;SDS011;58858;50.948;6.566;2022-11-15T20:47:03;11.80;;;5.00;;
71162;SDS011;58858;50.948;6.566;2022-11-15T20:57:05;6.72;;;3.85;;
71162;SDS011;58858;50.948;6.566;2022-11-15T21:07:06;9.80;;;5.20;;
71162;SDS011;58858;50.948;6.566;2022-11-15T21:17:07;7.28;;;4.63;;
71162;SDS011;58858;50.948;6.566;2022-11-15T21:27:08;6.68;;;4.82;;
71162;SDS011;58858;50.948;6.566;2022-11-15T21:37:09;6.20;;;4.65;;
71162;SDS011;58858;50.948;6.566;2022-11-15T21:47:10;6.55;;;4.78;;
71162;SDS011;58858;50.948;6.566;2022-11-15T21:57:11;7.05;;;4.68;;
71162;SDS011;58858;50.948;6.566;2022-11-15T22:07:12;8.93;;;6.05;;
71162;SDS011;58858;50.948;6.566;2022-11-15T22:17:13;17.58;;;9.68;;
71162;SDS011;58858;50.948;6.566;2022-11-15T22:27:14;12.38;;;7.50;;
71162;SDS011;58858;50.948;6.566;2022-11-15T22:37:15;10.07;;;5.00;;
71162;SDS011;58858;50.948;6.566;2022-11-15T22:47:17;7.55;;;4.32;;
71162;SDS011;58858;50.948;6.566;2022-11-15T22:57:18;6.28;;;5.05;;
71162;SDS011;58858;50.948;6.566;2022-11-15T23:07:19;6.68;;;5.00;;
71162;SDS011;58858;50.948;6.566;2022-11-15T23:17:20;6.85;;;4.80;;
71162;SDS011;58858;50.948;6.566;2022-11-15T23:27:21;7.70;;;5.70;;
71162;SDS011;58858;50.948;6.566;2022-11-15T23:37:23;6.72;;;4.82;;
71162;SDS011;58858;50.948;6.566;2022-11-15T23:47:24;8.77;;;4.43;;
71162;SDS011;58858;50.948;6.566;2022-11-15T23:57:25;7.07;;;4.03;;
